Terminal Aerodrome Forecast
Issued by NWS

Home | Current Version | Previous Version | Text Only | Print | Product List | Glossary On
Versions: 1 2 3 4 5 6 7 8 9 10 11 12 13 14 15 16 17 18 19
000
FTUS42 KFFC 211502 AAA
TAFFTY
TAF AMD
KFTY 211502Z 2115/2212 12004KT P6SM BKN030 BKN150
     FM211800 13006KT P6SM VCSH OVC035
     FM220200 11005KT P6SM OVC050
     FM220800 13004KT P6SM BKN015
     FM221000 13005KT P6SM OVC009=

USA.gov is the U.S. government's official web portal to all federal, state and local government web resources and services.